Accueil
METAR-TAF:

METAR-TAF

Aéroports :

Tajima, Japon

latitude: 35-31N, longitude: 134-48E, altitude: 210 m

Observation

Le bulletin a été fait il y a 30 minutes, à 09:00 UTC
Vent 2 kt de nord/nord-est
Température 22°C
Humidité 100%
Pression 1014 hPa
Visibilité 10 km ou plus
Quelques nuages à une hauteur de 1000 ft
Nuages épars à une hauteur de 2000 ft
Nuages fragmentés

METAR: RJBT 220900Z 02002KT 9999 FEW010 SCT020 BKN/// 22/22 Q1014

Heure: 18:30 (09:30 UTC)


TAF: absent

Observations et prévisions météorologiques de plus de 4000 aéroports (messages METAR et TAF).

Les stations disponibles sont représentées par des disques jaunes et rouges sur la carte.

Passer la souris dessus pour voir le nom de la station.

Cliquer dessus pour voir les observations et prévisions météorologiques.

Pour changer de carte: cliquez sur les boutons verts avec une croix noire pour zoomer, sur le bouton vert avec un tiret pour effectuer un zoom arrière, ou sur les flèches vertes pour les cartes adjacentes.


METAR-TAF: